sensor_id;sensor_type;location;lat;lon;timestamp;P1;durP1;ratioP1;P2;durP2;ratioP2
32918;SDS011;19280;42.646;21.150;2023-04-24T00:00:08;7.57;;;4.90;;
32918;SDS011;19280;42.646;21.150;2023-04-24T00:02:35;11.15;;;5.20;;
32918;SDS011;19280;42.646;21.150;2023-04-24T00:05:04;9.57;;;4.50;;
32918;SDS011;19280;42.646;21.150;2023-04-24T00:07:30;10.75;;;5.20;;
32918;SDS011;19280;42.646;21.150;2023-04-24T00:09:56;8.20;;;5.15;;
32918;SDS011;19280;42.646;21.150;2023-04-24T00:12:22;10.60;;;4.80;;
32918;SDS011;19280;42.646;21.150;2023-04-24T00:14:49;7.45;;;4.85;;
32918;SDS011;19280;42.646;21.150;2023-04-24T00:17:15;7.80;;;4.22;;
32918;SDS011;19280;42.646;21.150;2023-04-24T00:19:41;16.58;;;5.35;;
32918;SDS011;19280;42.646;21.150;2023-04-24T00:22:07;10.95;;;5.82;;
32918;SDS011;19280;42.646;21.150;2023-04-24T00:24:33;13.45;;;7.95;;
32918;SDS011;19280;42.646;21.150;2023-04-24T00:26:59;15.05;;;7.15;;
32918;SDS011;19280;42.646;21.150;2023-04-24T00:29:26;12.65;;;5.47;;
32918;SDS011;19280;42.646;21.150;2023-04-24T00:31:53;8.70;;;4.47;;
32918;SDS011;19280;42.646;21.150;2023-04-24T00:34:19;11.27;;;5.28;;
32918;SDS011;19280;42.646;21.150;2023-04-24T00:36:45;11.73;;;4.55;;
32918;SDS011;19280;42.646;21.150;2023-04-24T00:39:11;12.82;;;4.25;;
32918;SDS011;19280;42.646;21.150;2023-04-24T00:41:37;8.48;;;4.18;;
32918;SDS011;19280;42.646;21.150;2023-04-24T00:44:03;7.90;;;3.95;;
32918;SDS011;19280;42.646;21.150;2023-04-24T00:46:29;11.50;;;4.40;;
32918;SDS011;19280;42.646;21.150;2023-04-24T00:48:56;15.48;;;3.60;;
32918;SDS011;19280;42.646;21.150;2023-04-24T00:51:22;8.20;;;3.95;;
32918;SDS011;19280;42.646;21.150;2023-04-24T00:53:49;9.02;;;3.80;;
32918;SDS011;19280;42.646;21.150;2023-04-24T00:56:16;7.20;;;3.88;;
32918;SDS011;19280;42.646;21.150;2023-04-24T00:58:42;4.93;;;3.63;;
32918;SDS011;19280;42.646;21.150;2023-04-24T01:01:09;10.98;;;3.92;;
32918;SDS011;19280;42.646;21.150;2023-04-24T01:03:36;7.13;;;3.83;;
32918;SDS011;19280;42.646;21.150;2023-04-24T01:06:03;11.82;;;3.88;;
32918;SDS011;19280;42.646;21.150;2023-04-24T01:08:29;6.82;;;4.72;;
32918;SDS011;19280;42.646;21.150;2023-04-24T01:10:55;8.00;;;3.97;;
32918;SDS011;19280;42.646;21.150;2023-04-24T01:13:22;14.50;;;6.13;;
32918;SDS011;19280;42.646;21.150;2023-04-24T01:15:48;10.00;;;4.60;;
32918;SDS011;19280;42.646;21.150;2023-04-24T01:18:15;7.50;;;4.80;;
32918;SDS011;19280;42.646;21.150;2023-04-24T01:20:42;16.48;;;6.10;;
32918;SDS011;19280;42.646;21.150;2023-04-24T01:23:10;10.00;;;5.13;;
32918;SDS011;19280;42.646;21.150;2023-04-24T01:25:36;9.68;;;4.65;;
32918;SDS011;19280;42.646;21.150;2023-04-24T01:28:02;10.10;;;4.75;;
32918;SDS011;19280;42.646;21.150;2023-04-24T01:30:29;7.75;;;4.47;;
32918;SDS011;19280;42.646;21.150;2023-04-24T01:32:55;16.23;;;8.40;;
32918;SDS011;19280;42.646;21.150;2023-04-24T01:35:21;9.98;;;4.78;;
32918;SDS011;19280;42.646;21.150;2023-04-24T01:37:47;10.63;;;5.20;;
32918;SDS011;19280;42.646;21.150;2023-04-24T01:40:13;10.77;;;5.20;;
32918;SDS011;19280;42.646;21.150;2023-04-24T01:42:40;6.10;;;4.22;;
32918;SDS011;19280;42.646;21.150;2023-04-24T01:45:07;10.60;;;6.28;;
32918;SDS011;19280;42.646;21.150;2023-04-24T01:47:35;7.05;;;3.90;;
32918;SDS011;19280;42.646;21.150;2023-04-24T01:50:02;10.25;;;5.32;;
32918;SDS011;19280;42.646;21.150;2023-04-24T01:52:28;6.30;;;4.85;;
32918;SDS011;19280;42.646;21.150;2023-04-24T01:54:56;6.88;;;4.55;;
32918;SDS011;19280;42.646;21.150;2023-04-24T01:57:22;11.48;;;5.55;;
32918;SDS011;19280;42.646;21.150;2023-04-24T01:59:48;10.40;;;4.57;;
32918;SDS011;19280;42.646;21.150;2023-04-24T02:02:14;9.95;;;5.47;;
32918;SDS011;19280;42.646;21.150;2023-04-24T02:04:40;10.13;;;5.90;;
32918;SDS011;19280;42.646;21.150;2023-04-24T02:07:06;10.77;;;6.05;;
32918;SDS011;19280;42.646;21.150;2023-04-24T02:09:32;10.63;;;4.93;;
32918;SDS011;19280;42.646;21.150;2023-04-24T02:11:58;13.32;;;6.47;;
32918;SDS011;19280;42.646;21.150;2023-04-24T02:14:25;10.43;;;6.38;;
32918;SDS011;19280;42.646;21.150;2023-04-24T02:16:51;15.48;;;6.68;;
32918;SDS011;19280;42.646;21.150;2023-04-24T02:19:18;12.10;;;6.80;;
32918;SDS011;19280;42.646;21.150;2023-04-24T02:21:44;11.15;;;6.63;;
32918;SDS011;19280;42.646;21.150;2023-04-24T02:24:10;9.88;;;5.80;;
32918;SDS011;19280;42.646;21.150;2023-04-24T02:26:36;12.52;;;6.40;;
32918;SDS011;19280;42.646;21.150;2023-04-24T02:29:03;12.18;;;6.60;;
32918;SDS011;19280;42.646;21.150;2023-04-24T02:31:29;11.80;;;6.85;;
32918;SDS011;19280;42.646;21.150;2023-04-24T02:33:55;13.65;;;7.63;;
32918;SDS011;19280;42.646;21.150;2023-04-24T02:36:21;9.85;;;6.18;;
32918;SDS011;19280;42.646;21.150;2023-04-24T02:38:47;10.20;;;5.93;;
32918;SDS011;19280;42.646;21.150;2023-04-24T02:41:13;12.05;;;5.97;;
32918;SDS011;19280;42.646;21.150;2023-04-24T02:43:39;11.18;;;5.68;;
32918;SDS011;19280;42.646;21.150;2023-04-24T02:46:05;9.95;;;5.85;;
32918;SDS011;19280;42.646;21.150;2023-04-24T02:48:31;10.52;;;6.55;;
32918;SDS011;19280;42.646;21.150;2023-04-24T02:50:57;12.55;;;5.40;;
32918;SDS011;19280;42.646;21.150;2023-04-24T02:53:23;8.55;;;5.32;;
32918;SDS011;19280;42.646;21.150;2023-04-24T02:55:49;10.18;;;6.13;;
32918;SDS011;19280;42.646;21.150;2023-04-24T02:58:15;8.25;;;5.50;;
32918;SDS011;19280;42.646;21.150;2023-04-24T03:00:42;10.18;;;6.15;;
32918;SDS011;19280;42.646;21.150;2023-04-24T03:03:08;15.30;;;6.35;;
32918;SDS011;19280;42.646;21.150;2023-04-24T03:05:34;14.10;;;6.43;;
32918;SDS011;19280;42.646;21.150;2023-04-24T03:08:00;9.88;;;6.20;;
32918;SDS011;19280;42.646;21.150;2023-04-24T03:10:26;9.57;;;6.10;;
32918;SDS011;19280;42.646;21.150;2023-04-24T03:12:52;10.88;;;6.97;;
32918;SDS011;19280;42.646;21.150;2023-04-24T03:15:20;12.02;;;6.13;;
32918;SDS011;19280;42.646;21.150;2023-04-24T03:17:46;13.82;;;6.07;;
32918;SDS011;19280;42.646;21.150;2023-04-24T03:20:12;16.35;;;6.65;;
32918;SDS011;19280;42.646;21.150;2023-04-24T03:22:38;8.98;;;5.75;;
32918;SDS011;19280;42.646;21.150;2023-04-24T03:25:04;10.55;;;6.65;;
32918;SDS011;19280;42.646;21.150;2023-04-24T03:27:30;13.25;;;7.07;;
32918;SDS011;19280;42.646;21.150;2023-04-24T03:29:56;8.25;;;6.25;;
32918;SDS011;19280;42.646;21.150;2023-04-24T03:32:23;13.80;;;6.15;;
32918;SDS011;19280;42.646;21.150;2023-04-24T03:34:49;9.88;;;6.18;;
32918;SDS011;19280;42.646;21.150;2023-04-24T03:37:16;17.05;;;6.80;;
32918;SDS011;19280;42.646;21.150;2023-04-24T03:39:42;11.55;;;6.50;;
32918;SDS011;19280;42.646;21.150;2023-04-24T03:42:08;9.93;;;6.45;;
32918;SDS011;19280;42.646;21.150;2023-04-24T03:44:35;11.10;;;6.88;;
32918;SDS011;19280;42.646;21.150;2023-04-24T03:47:01;10.52;;;7.07;;
32918;SDS011;19280;42.646;21.150;2023-04-24T03:49:27;9.57;;;7.15;;
32918;SDS011;19280;42.646;21.150;2023-04-24T03:51:53;14.90;;;7.40;;
32918;SDS011;19280;42.646;21.150;2023-04-24T03:54:19;9.13;;;6.78;;
32918;SDS011;19280;42.646;21.150;2023-04-24T03:56:45;10.73;;;6.88;;
32918;SDS011;19280;42.646;21.150;2023-04-24T03:59:11;11.82;;;7.22;;
32918;SDS011;19280;42.646;21.150;2023-04-24T04:01:38;10.65;;;6.45;;
32918;SDS011;19280;42.646;21.150;2023-04-24T04:04:05;11.75;;;6.93;;
32918;SDS011;19280;42.646;21.150;2023-04-24T04:06:31;14.43;;;7.25;;
32918;SDS011;19280;42.646;21.150;2023-04-24T04:08:57;16.48;;;6.35;;
32918;SDS011;19280;42.646;21.150;2023-04-24T04:11:23;10.18;;;6.40;;
32918;SDS011;19280;42.646;21.150;2023-04-24T04:13:49;12.38;;;6.57;;
32918;SDS011;19280;42.646;21.150;2023-04-24T04:16:16;8.40;;;6.20;;
32918;SDS011;19280;42.646;21.150;2023-04-24T04:18:42;10.63;;;5.70;;
32918;SDS011;19280;42.646;21.150;2023-04-24T04:21:08;8.98;;;5.03;;
32918;SDS011;19280;42.646;21.150;2023-04-24T04:23:34;12.35;;;6.18;;
32918;SDS011;19280;42.646;21.150;2023-04-24T04:26:01;16.55;;;6.60;;
32918;SDS011;19280;42.646;21.150;2023-04-24T04:28:28;10.93;;;5.90;;
32918;SDS011;19280;42.646;21.150;2023-04-24T04:30:55;15.07;;;7.30;;
32918;SDS011;19280;42.646;21.150;2023-04-24T04:33:22;12.68;;;7.18;;
32918;SDS011;19280;42.646;21.150;2023-04-24T04:35:48;11.02;;;7.05;;
32918;SDS011;19280;42.646;21.150;2023-04-24T04:38:16;9.57;;;5.82;;
32918;SDS011;19280;42.646;21.150;2023-04-24T04:40:43;13.32;;;6.40;;
32918;SDS011;19280;42.646;21.150;2023-04-24T04:43:09;14.75;;;6.50;;
32918;SDS011;19280;42.646;21.150;2023-04-24T04:45:36;16.33;;;7.30;;
32918;SDS011;19280;42.646;21.150;2023-04-24T04:48:04;12.60;;;7.07;;
32918;SDS011;19280;42.646;21.150;2023-04-24T04:50:32;13.75;;;6.80;;
32918;SDS011;19280;42.646;21.150;2023-04-24T04:52:58;12.43;;;5.60;;
32918;SDS011;19280;42.646;21.150;2023-04-24T04:55:24;8.85;;;5.38;;
32918;SDS011;19280;42.646;21.150;2023-04-24T04:57:51;13.70;;;5.30;;
32918;SDS011;19280;42.646;21.150;2023-04-24T05:00:17;10.15;;;4.65;;
32918;SDS011;19280;42.646;21.150;2023-04-24T05:02:44;7.60;;;4.70;;
32918;SDS011;19280;42.646;21.150;2023-04-24T05:05:10;5.30;;;4.63;;
32918;SDS011;19280;42.646;21.150;2023-04-24T05:07:36;13.18;;;4.93;;
32918;SDS011;19280;42.646;21.150;2023-04-24T05:10:02;17.50;;;5.55;;
32918;SDS011;19280;42.646;21.150;2023-04-24T05:12:28;9.40;;;4.63;;
32918;SDS011;19280;42.646;21.150;2023-04-24T05:14:54;10.18;;;4.75;;
32918;SDS011;19280;42.646;21.150;2023-04-24T05:17:20;12.00;;;4.90;;
32918;SDS011;19280;42.646;21.150;2023-04-24T05:19:46;15.38;;;5.00;;
32918;SDS011;19280;42.646;21.150;2023-04-24T05:22:13;12.88;;;4.97;;
32918;SDS011;19280;42.646;21.150;2023-04-24T05:24:39;15.50;;;4.85;;
32918;SDS011;19280;42.646;21.150;2023-04-24T05:27:05;13.68;;;5.13;;
32918;SDS011;19280;42.646;21.150;2023-04-24T05:29:32;22.50;;;6.30;;
32918;SDS011;19280;42.646;21.150;2023-04-24T05:31:58;12.80;;;8.13;;
32918;SDS011;19280;42.646;21.150;2023-04-24T05:34:24;9.80;;;5.55;;
32918;SDS011;19280;42.646;21.150;2023-04-24T05:36:50;10.27;;;4.97;;
32918;SDS011;19280;42.646;21.150;2023-04-24T05:39:16;7.05;;;3.72;;
32918;SDS011;19280;42.646;21.150;2023-04-24T05:41:42;8.43;;;3.92;;
32918;SDS011;19280;42.646;21.150;2023-04-24T05:44:08;8.18;;;4.00;;
32918;SDS011;19280;42.646;21.150;2023-04-24T05:46:35;6.03;;;3.97;;
32918;SDS011;19280;42.646;21.150;2023-04-24T05:49:01;10.65;;;4.28;;
32918;SDS011;19280;42.646;21.150;2023-04-24T05:51:27;8.32;;;4.43;;
32918;SDS011;19280;42.646;21.150;2023-04-24T05:53:53;7.90;;;4.43;;
32918;SDS011;19280;42.646;21.150;2023-04-24T05:56:20;15.77;;;4.95;;
32918;SDS011;19280;42.646;21.150;2023-04-24T05:58:46;9.98;;;5.10;;
32918;SDS011;19280;42.646;21.150;2023-04-24T06:01:12;11.88;;;4.95;;
32918;SDS011;19280;42.646;21.150;2023-04-24T06:03:41;9.55;;;4.60;;
32918;SDS011;19280;42.646;21.150;2023-04-24T06:06:07;8.35;;;4.28;;
32918;SDS011;19280;42.646;21.150;2023-04-24T06:08:34;8.13;;;4.10;;
32918;SDS011;19280;42.646;21.150;2023-04-24T06:11:00;9.10;;;4.57;;
32918;SDS011;19280;42.646;21.150;2023-04-24T06:13:26;9.68;;;4.45;;
32918;SDS011;19280;42.646;21.150;2023-04-24T06:15:52;7.93;;;3.78;;
32918;SDS011;19280;42.646;21.150;2023-04-24T06:18:18;8.57;;;3.80;;
32918;SDS011;19280;42.646;21.150;2023-04-24T06:20:45;10.75;;;4.55;;
32918;SDS011;19280;42.646;21.150;2023-04-24T06:23:11;12.10;;;6.07;;
32918;SDS011;19280;42.646;21.150;2023-04-24T06:25:37;6.65;;;4.13;;
32918;SDS011;19280;42.646;21.150;2023-04-24T06:28:03;16.02;;;6.70;;
32918;SDS011;19280;42.646;21.150;2023-04-24T06:30:30;10.93;;;5.63;;
32918;SDS011;19280;42.646;21.150;2023-04-24T06:32:56;15.35;;;7.85;;
32918;SDS011;19280;42.646;21.150;2023-04-24T06:35:22;9.30;;;6.28;;
32918;SDS011;19280;42.646;21.150;2023-04-24T06:37:48;12.48;;;6.50;;
32918;SDS011;19280;42.646;21.150;2023-04-24T06:40:15;6.18;;;3.92;;
32918;SDS011;19280;42.646;21.150;2023-04-24T06:42:43;9.55;;;4.45;;
32918;SDS011;19280;42.646;21.150;2023-04-24T06:45:09;12.82;;;7.72;;
32918;SDS011;19280;42.646;21.150;2023-04-24T06:47:36;9.82;;;4.95;;
32918;SDS011;19280;42.646;21.150;2023-04-24T06:50:03;5.28;;;4.03;;
32918;SDS011;19280;42.646;21.150;2023-04-24T06:52:29;6.35;;;3.97;;
32918;SDS011;19280;42.646;21.150;2023-04-24T06:55:01;6.22;;;4.00;;
32918;SDS011;19280;42.646;21.150;2023-04-24T06:57:27;10.23;;;4.20;;
32918;SDS011;19280;42.646;21.150;2023-04-24T06:59:53;5.00;;;3.90;;
32918;SDS011;19280;42.646;21.150;2023-04-24T07:02:19;10.15;;;4.22;;
32918;SDS011;19280;42.646;21.150;2023-04-24T07:04:45;9.32;;;3.88;;
32918;SDS011;19280;42.646;21.150;2023-04-24T07:07:12;6.05;;;4.18;;
32918;SDS011;19280;42.646;21.150;2023-04-24T07:09:39;7.13;;;4.03;;
32918;SDS011;19280;42.646;21.150;2023-04-24T07:12:09;6.07;;;3.50;;
32918;SDS011;19280;42.646;21.150;2023-04-24T07:14:36;10.50;;;4.72;;
32918;SDS011;19280;42.646;21.150;2023-04-24T07:17:03;6.40;;;4.32;;
32918;SDS011;19280;42.646;21.150;2023-04-24T07:19:29;5.28;;;3.97;;
32918;SDS011;19280;42.646;21.150;2023-04-24T07:21:55;9.35;;;4.50;;
32918;SDS011;19280;42.646;21.150;2023-04-24T07:24:23;8.73;;;4.47;;
32918;SDS011;19280;42.646;21.150;2023-04-24T07:26:50;5.50;;;3.90;;
32918;SDS011;19280;42.646;21.150;2023-04-24T07:29:16;9.77;;;4.35;;
32918;SDS011;19280;42.646;21.150;2023-04-24T07:31:43;10.60;;;4.03;;
32918;SDS011;19280;42.646;21.150;2023-04-24T07:34:09;8.18;;;4.13;;
32918;SDS011;19280;42.646;21.150;2023-04-24T07:36:35;8.45;;;3.92;;
32918;SDS011;19280;42.646;21.150;2023-04-24T07:39:03;9.63;;;4.65;;
32918;SDS011;19280;42.646;21.150;2023-04-24T07:41:29;5.57;;;4.20;;
32918;SDS011;19280;42.646;21.150;2023-04-24T07:43:55;12.88;;;4.32;;
32918;SDS011;19280;42.646;21.150;2023-04-24T07:46:21;12.73;;;5.00;;
32918;SDS011;19280;42.646;21.150;2023-04-24T07:48:48;5.55;;;4.22;;
32918;SDS011;19280;42.646;21.150;2023-04-24T07:51:14;7.72;;;4.10;;
32918;SDS011;19280;42.646;21.150;2023-04-24T07:53:41;8.10;;;4.53;;
32918;SDS011;19280;42.646;21.150;2023-04-24T07:56:07;8.05;;;4.32;;
32918;SDS011;19280;42.646;21.150;2023-04-24T07:58:33;7.53;;;4.35;;
32918;SDS011;19280;42.646;21.150;2023-04-24T08:00:59;12.48;;;4.25;;
32918;SDS011;19280;42.646;21.150;2023-04-24T08:03:25;8.98;;;4.50;;
32918;SDS011;19280;42.646;21.150;2023-04-24T08:05:51;7.45;;;4.78;;
32918;SDS011;19280;42.646;21.150;2023-04-24T08:08:21;10.07;;;4.78;;
32918;SDS011;19280;42.646;21.150;2023-04-24T08:10:47;10.98;;;3.88;;
32918;SDS011;19280;42.646;21.150;2023-04-24T08:13:14;6.90;;;3.85;;
32918;SDS011;19280;42.646;21.150;2023-04-24T08:15:40;5.50;;;4.35;;
32918;SDS011;19280;42.646;21.150;2023-04-24T08:18:06;7.47;;;4.45;;
32918;SDS011;19280;42.646;21.150;2023-04-24T08:20:34;7.95;;;4.22;;
32918;SDS011;19280;42.646;21.150;2023-04-24T08:23:01;9.77;;;4.43;;
32918;SDS011;19280;42.646;21.150;2023-04-24T08:25:27;19.08;;;4.82;;
32918;SDS011;19280;42.646;21.150;2023-04-24T08:27:53;6.53;;;4.55;;
32918;SDS011;19280;42.646;21.150;2023-04-24T08:30:20;9.38;;;4.30;;
32918;SDS011;19280;42.646;21.150;2023-04-24T08:32:46;11.57;;;5.10;;
32918;SDS011;19280;42.646;21.150;2023-04-24T08:35:12;9.35;;;6.65;;
32918;SDS011;19280;42.646;21.150;2023-04-24T08:37:38;11.02;;;5.00;;
32918;SDS011;19280;42.646;21.150;2023-04-24T08:40:06;14.07;;;5.53;;
32918;SDS011;19280;42.646;21.150;2023-04-24T08:42:32;8.13;;;4.65;;
32918;SDS011;19280;42.646;21.150;2023-04-24T08:44:59;8.35;;;4.38;;
32918;SDS011;19280;42.646;21.150;2023-04-24T08:47:25;12.43;;;4.40;;
32918;SDS011;19280;42.646;21.150;2023-04-24T08:49:52;12.25;;;5.15;;
32918;SDS011;19280;42.646;21.150;2023-04-24T08:52:19;11.27;;;4.75;;
32918;SDS011;19280;42.646;21.150;2023-04-24T08:54:46;12.10;;;5.45;;
32918;SDS011;19280;42.646;21.150;2023-04-24T08:57:13;10.30;;;4.82;;
32918;SDS011;19280;42.646;21.150;2023-04-24T08:59:40;8.57;;;4.85;;
32918;SDS011;19280;42.646;21.150;2023-04-24T09:02:06;8.52;;;4.40;;
32918;SDS011;19280;42.646;21.150;2023-04-24T09:04:35;7.30;;;4.82;;
32918;SDS011;19280;42.646;21.150;2023-04-24T09:07:02;10.13;;;4.30;;
32918;SDS011;19280;42.646;21.150;2023-04-24T09:09:30;13.60;;;4.47;;
32918;SDS011;19280;42.646;21.150;2023-04-24T09:11:56;10.95;;;4.35;;
32918;SDS011;19280;42.646;21.150;2023-04-24T09:14:24;4.72;;;3.63;;
32918;SDS011;19280;42.646;21.150;2023-04-24T09:16:50;5.78;;;3.92;;
32918;SDS011;19280;42.646;21.150;2023-04-24T09:19:16;4.97;;;3.67;;
32918;SDS011;19280;42.646;21.150;2023-04-24T09:21:45;5.93;;;4.13;;
32918;SDS011;19280;42.646;21.150;2023-04-24T09:24:15;17.52;;;4.15;;
32918;SDS011;19280;42.646;21.150;2023-04-24T09:26:47;7.25;;;3.65;;
32918;SDS011;19280;42.646;21.150;2023-04-24T09:29:14;6.10;;;3.67;;
32918;SDS011;19280;42.646;21.150;2023-04-24T09:31:40;9.98;;;4.10;;
32918;SDS011;19280;42.646;21.150;2023-04-24T09:34:07;4.63;;;3.17;;
32918;SDS011;19280;42.646;21.150;2023-04-24T09:36:37;4.32;;;3.50;;
32918;SDS011;19280;42.646;21.150;2023-04-24T09:39:07;6.03;;;3.85;;
32918;SDS011;19280;42.646;21.150;2023-04-24T09:41:35;5.93;;;4.03;;
32918;SDS011;19280;42.646;21.150;2023-04-24T09:44:13;4.72;;;2.80;;
32918;SDS011;19280;42.646;21.150;2023-04-24T09:46:40;4.78;;;3.22;;
32918;SDS011;19280;42.646;21.150;2023-04-24T09:49:10;5.35;;;3.10;;
32918;SDS011;19280;42.646;21.150;2023-04-24T09:51:37;6.45;;;2.92;;
32918;SDS011;19280;42.646;21.150;2023-04-24T09:54:04;6.32;;;3.80;;
32918;SDS011;19280;42.646;21.150;2023-04-24T09:56:34;3.83;;;3.25;;
32918;SDS011;19280;42.646;21.150;2023-04-24T09:59:06;4.13;;;2.85;;
32918;SDS011;19280;42.646;21.150;2023-04-24T10:01:33;7.60;;;3.63;;
32918;SDS011;19280;42.646;21.150;2023-04-24T10:03:59;6.65;;;3.38;;
32918;SDS011;19280;42.646;21.150;2023-04-24T10:06:33;5.82;;;3.08;;
32918;SDS011;19280;42.646;21.150;2023-04-24T10:08:59;9.40;;;3.55;;
32918;SDS011;19280;42.646;21.150;2023-04-24T10:11:29;7.55;;;3.50;;
32918;SDS011;19280;42.646;21.150;2023-04-24T10:13:55;6.35;;;3.25;;
32918;SDS011;19280;42.646;21.150;2023-04-24T10:16:22;7.13;;;3.00;;
32918;SDS011;19280;42.646;21.150;2023-04-24T10:18:48;9.00;;;3.25;;
32918;SDS011;19280;42.646;21.150;2023-04-24T10:21:15;5.00;;;3.40;;
32918;SDS011;19280;42.646;21.150;2023-04-24T10:23:42;5.88;;;3.33;;
32918;SDS011;19280;42.646;21.150;2023-04-24T10:26:10;4.60;;;3.30;;
32918;SDS011;19280;42.646;21.150;2023-04-24T10:28:42;5.75;;;3.70;;
32918;SDS011;19280;42.646;21.150;2023-04-24T10:31:10;5.07;;;3.33;;
32918;SDS011;19280;42.646;21.150;2023-04-24T10:33:36;6.07;;;3.30;;
32918;SDS011;19280;42.646;21.150;2023-04-24T10:36:03;4.03;;;2.85;;
32918;SDS011;19280;42.646;21.150;2023-04-24T10:38:30;7.35;;;3.40;;
32918;SDS011;19280;42.646;21.150;2023-04-24T10:41:09;3.83;;;3.03;;
32918;SDS011;19280;42.646;21.150;2023-04-24T10:43:40;4.60;;;3.20;;
32918;SDS011;19280;42.646;21.150;2023-04-24T10:46:07;5.97;;;2.88;;
32918;SDS011;19280;42.646;21.150;2023-04-24T10:48:35;4.82;;;3.10;;
32918;SDS011;19280;42.646;21.150;2023-04-24T10:51:01;5.03;;;3.28;;
32918;SDS011;19280;42.646;21.150;2023-04-24T10:53:28;6.78;;;3.22;;
32918;SDS011;19280;42.646;21.150;2023-04-24T10:58:24;7.35;;;3.28;;
32918;SDS011;19280;42.646;21.150;2023-04-24T11:00:57;9.48;;;3.15;;
32918;SDS011;19280;42.646;21.150;2023-04-24T11:06:06;5.78;;;3.15;;
32918;SDS011;19280;42.646;21.150;2023-04-24T11:11:17;10.20;;;3.45;;
32918;SDS011;19280;42.646;21.150;2023-04-24T11:21:40;8.55;;;3.00;;
32918;SDS011;19280;42.646;21.150;2023-04-24T11:26:53;7.20;;;3.60;;
32918;SDS011;19280;42.646;21.150;2023-04-24T11:29:19;7.50;;;4.97;;
32918;SDS011;19280;42.646;21.150;2023-04-24T11:31:46;8.02;;;4.00;;
32918;SDS011;19280;42.646;21.150;2023-04-24T11:34:16;10.88;;;3.47;;
32918;SDS011;19280;42.646;21.150;2023-04-24T11:36:44;12.23;;;3.92;;
32918;SDS011;19280;42.646;21.150;2023-04-24T11:39:10;8.60;;;3.47;;
32918;SDS011;19280;42.646;21.150;2023-04-24T11:41:37;11.05;;;4.00;;
32918;SDS011;19280;42.646;21.150;2023-04-24T11:44:08;13.48;;;4.15;;
32918;SDS011;19280;42.646;21.150;2023-04-24T11:46:34;12.05;;;3.80;;
32918;SDS011;19280;42.646;21.150;2023-04-24T11:49:02;9.48;;;3.65;;
32918;SDS011;19280;42.646;21.150;2023-04-24T11:51:28;8.68;;;4.03;;
32918;SDS011;19280;42.646;21.150;2023-04-24T11:53:56;14.68;;;3.25;;
32918;SDS011;19280;42.646;21.150;2023-04-24T11:56:24;11.70;;;3.95;;
32918;SDS011;19280;42.646;21.150;2023-04-24T11:58:53;21.67;;;4.53;;
32918;SDS011;19280;42.646;21.150;2023-04-24T12:01:21;12.00;;;4.35;;
32918;SDS011;19280;42.646;21.150;2023-04-24T12:03:49;12.68;;;3.95;;
32918;SDS011;19280;42.646;21.150;2023-04-24T12:06:19;11.98;;;3.50;;
32918;SDS011;19280;42.646;21.150;2023-04-24T12:08:46;11.77;;;3.65;;
32918;SDS011;19280;42.646;21.150;2023-04-24T12:11:14;12.27;;;4.57;;
32918;SDS011;19280;42.646;21.150;2023-04-24T12:13:40;11.88;;;4.18;;
32918;SDS011;19280;42.646;21.150;2023-04-24T12:16:06;8.68;;;3.90;;
32918;SDS011;19280;42.646;21.150;2023-04-24T12:18:32;12.40;;;4.10;;
32918;SDS011;19280;42.646;21.150;2023-04-24T12:23:44;11.88;;;4.85;;
32918;SDS011;19280;42.646;21.150;2023-04-24T12:26:17;19.92;;;6.13;;
32918;SDS011;19280;42.646;21.150;2023-04-24T12:28:45;7.45;;;4.85;;
32918;SDS011;19280;42.646;21.150;2023-04-24T12:31:11;8.15;;;5.05;;
32918;SDS011;19280;42.646;21.150;2023-04-24T12:33:39;7.32;;;4.78;;
32918;SDS011;19280;42.646;21.150;2023-04-24T12:36:05;6.57;;;4.57;;
32918;SDS011;19280;42.646;21.150;2023-04-24T12:38:31;7.55;;;4.55;;
32918;SDS011;19280;42.646;21.150;2023-04-24T12:41:11;8.48;;;5.30;;
32918;SDS011;19280;42.646;21.150;2023-04-24T12:43:50;9.20;;;5.30;;
32918;SDS011;19280;42.646;21.150;2023-04-24T12:46:16;21.33;;;5.65;;
32918;SDS011;19280;42.646;21.150;2023-04-24T12:48:42;9.80;;;5.10;;
32918;SDS011;19280;42.646;21.150;2023-04-24T12:51:08;10.93;;;4.57;;
32918;SDS011;19280;42.646;21.150;2023-04-24T12:53:35;5.78;;;3.95;;
32918;SDS011;19280;42.646;21.150;2023-04-24T12:56:03;15.68;;;4.80;;
32918;SDS011;19280;42.646;21.150;2023-04-24T12:58:29;11.38;;;4.93;;
32918;SDS011;19280;42.646;21.150;2023-04-24T13:00:55;10.05;;;4.68;;
32918;SDS011;19280;42.646;21.150;2023-04-24T13:03:21;7.72;;;5.03;;
32918;SDS011;19280;42.646;21.150;2023-04-24T13:05:48;10.88;;;4.78;;
32918;SDS011;19280;42.646;21.150;2023-04-24T13:08:14;11.60;;;5.90;;
32918;SDS011;19280;42.646;21.150;2023-04-24T13:10:40;13.85;;;5.88;;
32918;SDS011;19280;42.646;21.150;2023-04-24T13:13:06;11.60;;;5.88;;
32918;SDS011;19280;42.646;21.150;2023-04-24T13:15:32;9.93;;;5.45;;
32918;SDS011;19280;42.646;21.150;2023-04-24T13:17:59;7.22;;;4.45;;
32918;SDS011;19280;42.646;21.150;2023-04-24T13:20:25;8.57;;;4.85;;
32918;SDS011;19280;42.646;21.150;2023-04-24T13:22:52;9.32;;;4.90;;
32918;SDS011;19280;42.646;21.150;2023-04-24T13:25:19;10.35;;;4.80;;
32918;SDS011;19280;42.646;21.150;2023-04-24T13:27:47;10.25;;;5.25;;
32918;SDS011;19280;42.646;21.150;2023-04-24T13:30:13;15.20;;;5.57;;
32918;SDS011;19280;42.646;21.150;2023-04-24T13:32:39;16.30;;;5.80;;
32918;SDS011;19280;42.646;21.150;2023-04-24T13:35:05;12.05;;;5.70;;
32918;SDS011;19280;42.646;21.150;2023-04-24T13:37:31;14.55;;;6.28;;
32918;SDS011;19280;42.646;21.150;2023-04-24T13:39:57;9.50;;;5.60;;
32918;SDS011;19280;42.646;21.150;2023-04-24T13:42:23;25.13;;;6.68;;
32918;SDS011;19280;42.646;21.150;2023-04-24T13:44:50;21.88;;;7.00;;
32918;SDS011;19280;42.646;21.150;2023-04-24T13:47:16;12.07;;;6.28;;
32918;SDS011;19280;42.646;21.150;2023-04-24T13:49:42;12.55;;;6.10;;
32918;SDS011;19280;42.646;21.150;2023-04-24T13:52:08;11.98;;;5.97;;
32918;SDS011;19280;42.646;21.150;2023-04-24T13:54:35;17.88;;;5.30;;
32918;SDS011;19280;42.646;21.150;2023-04-24T13:57:01;7.10;;;4.93;;
32918;SDS011;19280;42.646;21.150;2023-04-24T13:59:27;11.65;;;4.97;;
32918;SDS011;19280;42.646;21.150;2023-04-24T14:01:54;10.98;;;5.07;;
32918;SDS011;19280;42.646;21.150;2023-04-24T14:04:20;9.80;;;6.55;;
32918;SDS011;19280;42.646;21.150;2023-04-24T14:06:46;6.65;;;4.03;;
32918;SDS011;19280;42.646;21.150;2023-04-24T14:09:12;7.97;;;4.15;;
32918;SDS011;19280;42.646;21.150;2023-04-24T14:11:38;8.98;;;3.95;;
32918;SDS011;19280;42.646;21.150;2023-04-24T14:14:06;11.27;;;4.82;;
32918;SDS011;19280;42.646;21.150;2023-04-24T14:16:33;7.70;;;4.35;;
32918;SDS011;19280;42.646;21.150;2023-04-24T14:18:59;7.60;;;4.60;;
32918;SDS011;19280;42.646;21.150;2023-04-24T14:21:25;13.75;;;5.72;;
32918;SDS011;19280;42.646;21.150;2023-04-24T14:23:51;12.43;;;5.53;;
32918;SDS011;19280;42.646;21.150;2023-04-24T14:26:17;8.45;;;5.22;;
32918;SDS011;19280;42.646;21.150;2023-04-24T14:28:43;9.38;;;4.85;;
32918;SDS011;19280;42.646;21.150;2023-04-24T14:31:09;10.45;;;5.30;;
32918;SDS011;19280;42.646;21.150;2023-04-24T14:33:36;9.18;;;5.15;;
32918;SDS011;19280;42.646;21.150;2023-04-24T14:36:02;14.85;;;5.22;;
32918;SDS011;19280;42.646;21.150;2023-04-24T14:38:29;12.65;;;5.20;;
32918;SDS011;19280;42.646;21.150;2023-04-24T14:40:56;17.98;;;5.25;;
32918;SDS011;19280;42.646;21.150;2023-04-24T14:43:22;10.88;;;4.78;;
32918;SDS011;19280;42.646;21.150;2023-04-24T14:45:48;10.63;;;5.05;;